Decoded Metar for KBLF (BLUEFIELD in WV, USA) (IATA:BLF) | Meteo·Mobile Aviation Weather
aviador You're here:

KBLF Decoded Metar

BLUEFIELD in WV, USA
Report Time2019-01-21 23:52:00
UTC Time2019-01-22 00:28:48
Flight Rules vfr VFR
WindCalm
Visibility9999 m
Phenomena:N/A
Clouds:N/A
Expected CloudBase > 2,800 ft AGL from Temp-Dew spread
CeilingNone
Temp-12°C (ISA -21)
Dew Point-19°C (56% RH)
AAT-15.5°C
QNH1028 hPa
Density Alt-276 ft
Elevation2,864 ft
Report Wrong Elevation
Raw Report
KBLF 212352Z AUTO 00000KT 10SM CLR M12/M19 A3037 RMK AO2 SLP344
T11221194 11100 21128 51009=

Extra information for KBLF:More info

Metar Taf Metar & Taf Last 4 Metars F.Rules Stats Wind Profile Meteogram Temp Stats Airport Information Weather charts Add Link Nearby VenuesMetar ALERT Operation Metar Decoded Social comments

AIRNAV info for KBLF